HTMT

Mtwara Airport

Mtwara, Tanzania
METAR HTMT 170100Z 00000KT 9999 FEW019 FEW020CB SCT080 23/22 Q1012
Observed Flight Rules
Dec-17 @ 01:00 UTC (an hour ago) Visual Flight Rules
Wind Visibility Clouds
Calm 10,000+ meters
  • Few at 1,900' AGL
  • Few at 2,000' AGL
  • Scattered at 8,000' AGL
Temperatures Readings
Current 23°C / 73°F
Dewpoint 22°C / 72°F
Humidity 94%
Altimeter 29.88" Hg
Pressure 1012 hPa
Elevation 113
METAR HTMT 170100Z 00000KT 9999 FEW019 FEW020CB SCT080 23/22 Q1012
Observed Flight Rules
Dec-17 @ 01:00 UTC
(an hour ago)
VFR
Wind Visibility
Calm 10,000+ meters
Clouds
  • Few at 1,900' AGL
  • Few at 2,000' AGL
  • Scattered at 8,000' AGL
Temperature Dewpoint
23°C / 73°F 22°C / 72°F
Humidity Altimeter Pressure
94% 29.88" Hg 1012 hPa